Time;durP1;ratioP1;P1;durP2;ratioP2;P2;SDS_P1;SDS_P2;PMS_P1;PMS_P2;Temp;Humidity;BMP_temperature;BMP_pressure;BME280_temperature;BME280_humidity;BME280_pressure;Samples;Min_cycle;Max_cycle;Signal;HPM_P1;HPM_P2
2023/04/06 00:01:42;;;;;;;0.10;0.10;;;;;;;4.70;71.64;100423.78;5074806;28;19924;-67
2023/04/06 00:04:08;;;;;;;0.10;0.10;;;;;;;4.67;71.72;100425.03;5093824;28;20052;-67
2023/04/06 00:06:34;;;;;;;0.10;0.10;;;;;;;4.70;71.79;100420.25;5085956;28;20151;-68
2023/04/06 00:09:00;;;;;;;0.10;0.10;;;;;;;4.58;71.95;100409.28;5084486;28;20516;-67
2023/04/06 00:11:27;;;;;;;0.32;0.10;;;;;;;4.64;71.65;100419.25;5103715;27;20058;-67
2023/04/06 00:13:54;;;;;;;0.10;0.10;;;;;;;4.64;71.79;100420.06;5125420;27;20090;-67
2023/04/06 00:16:20;;;;;;;;;;;;;;;4.61;72.10;100420.50;5092262;27;20570;-67
2023/04/06 00:18:47;;;;;;;0.10;0.10;;;;;;;4.60;72.07;100424.25;5108081;27;19927;-67
2023/04/06 00:21:14;;;;;;;0.10;0.10;;;;;;;4.55;72.00;100418.69;5103602;28;20055;-67
2023/04/06 00:23:40;;;;;;;0.10;0.10;;;;;;;4.53;72.21;100418.09;5103840;28;20054;-67
2023/04/06 00:26:06;;;;;;;0.10;0.10;;;;;;;4.53;72.46;100431.63;5103245;28;20051;-67
2023/04/06 00:28:33;;;;;;;0.10;0.10;;;;;;;4.50;72.55;100429.34;5104468;28;20142;-67
2023/04/06 00:31:01;;;;;;;0.10;0.10;;;;;;;4.46;72.60;100434.38;5103012;28;20134;-68
2023/04/06 00:33:27;;;;;;;;;;;;;;;4.45;72.93;100426.47;5085711;28;20051;-67
2023/04/06 00:35:53;;;;;;;0.17;0.17;;;;;;;4.49;72.57;100433.09;5069009;28;19931;-67
2023/04/06 00:38:19;;;;;;;0.10;0.10;;;;;;;4.48;72.59;100426.84;5082655;28;20249;-67
2023/04/06 00:40:46;;;;;;;0.10;0.10;;;;;;;4.49;72.49;100424.97;5071343;28;20051;-67
2023/04/06 00:43:12;;;;;;;0.10;0.10;;;;;;;4.44;72.59;100425.63;5084949;28;20051;-67
2023/04/06 00:45:39;;;;;;;0.10;0.10;;;;;;;4.38;73.08;100421.09;5104302;28;20514;-67
2023/04/06 00:48:08;;;;;;;0.13;0.13;;;;;;;4.33;73.12;100420.91;5102552;28;20053;-67
2023/04/06 00:50:34;;;;;;;0.10;0.10;;;;;;;4.32;73.39;100422.78;5103715;28;20506;-67
2023/04/06 00:53:01;;;;;;;0.10;0.10;;;;;;;4.37;73.15;100417.56;5094271;28;20063;-68
2023/04/06 00:55:28;;;;;;;0.10;0.10;;;;;;;4.31;73.39;100426.53;5102678;28;20120;-67
2023/04/06 00:57:58;;;;;;;0.10;0.10;;;;;;;4.25;73.49;100419.31;5105361;28;20514;-67
2023/04/06 01:00:25;;;;;;;0.10;0.10;;;;;;;4.18;73.48;100419.34;5061209;28;20545;-67
2023/04/06 01:02:56;;;;;;;0.10;0.10;;;;;;;4.15;73.97;100411.66;5083591;28;20576;-67
2023/04/06 01:05:33;;;;;;;0.10;0.10;;;;;;;4.09;73.99;100410.66;5084601;28;20051;-67
2023/04/06 01:07:59;;;;;;;0.10;0.10;;;;;;;4.11;74.24;100422.06;5085731;28;20051;-67
2023/04/06 01:10:28;;;;;;;0.10;0.10;;;;;;;4.08;74.19;100414.41;5068776;28;20155;-68
2023/04/06 01:13:08;;;;;;;0.10;0.10;;;;;;;4.07;74.28;100418.16;5091461;28;20040;-68
2023/04/06 01:16:07;;;;;;;0.65;0.10;;;;;;;4.04;74.39;100421.28;5086921;28;20052;-68
2023/04/06 01:18:59;;;;;;;0.20;0.20;;;;;;;3.99;74.42;100421.09;5098044;28;20059;-68
2023/04/06 01:21:31;;;;;;;0.10;0.10;;;;;;;3.96;74.47;100418.81;5085613;28;20047;-68
2023/04/06 01:24:14;;;;;;;0.10;0.10;;;;;;;3.92;74.83;100404.06;5103925;28;20047;-68
2023/04/06 01:27:00;;;;;;;0.22;0.10;;;;;;;3.90;75.34;100409.69;5104400;28;20059;-68
2023/04/06 01:29:32;;;;;;;0.10;0.10;;;;;;;3.91;75.00;100411.34;5085261;28;20502;-68
2023/04/06 01:32:00;;;;;;;0.10;0.10;;;;;;;3.89;75.09;100412.59;5104588;28;20047;-68
2023/04/06 01:34:27;;;;;;;0.10;0.10;;;;;;;3.89;75.19;100412.59;5094818;28;20044;-67
2023/04/06 01:36:55;;;;;;;0.10;0.10;;;;;;;3.91;75.08;100413.25;5084646;28;20130;-68
2023/04/06 01:39:32;;;;;;;0.10;0.10;;;;;;;3.84;75.16;100413.28;5083649;28;20051;-68
2023/04/06 01:42:01;;;;;;;0.10;0.10;;;;;;;3.84;75.24;100413.28;5083905;28;20593;-68
2023/04/06 01:44:30;;;;;;;0.10;0.10;;;;;;;3.81;75.21;100408.25;5094567;28;20044;-68
2023/04/06 01:47:05;;;;;;;0.10;0.10;;;;;;;3.79;75.23;100407.66;5086649;28;20043;-68
2023/04/06 01:49:32;;;;;;;0.10;0.10;;;;;;;3.75;75.29;100409.13;5084273;28;20040;-68
2023/04/06 01:51:58;;;;;;;2.35;0.20;;;;;;;3.73;75.53;100413.94;5068308;28;20464;-68
2023/04/06 01:54:25;;;;;;;0.10;0.10;;;;;;;3.72;75.58;100413.09;5087814;28;20510;-67
2023/04/06 01:57:13;;;;;;;0.10;0.10;;;;;;;3.76;75.49;100408.09;5079432;28;20056;-68
2023/04/06 02:00:02;;;;;;;0.20;0.20;;;;;;;3.80;75.35;100404.75;5102506;28;20044;-68
2023/04/06 02:02:48;;;;;;;0.10;0.10;;;;;;;3.77;75.49;100402.47;5084008;28;20050;-67
2023/04/06 02:05:21;;;;;;;0.10;0.10;;;;;;;3.72;75.46;100412.28;5066627;28;20055;-67
2023/04/06 02:07:47;;;;;;;0.10;0.10;;;;;;;3.72;75.46;100413.09;5083662;28;20056;-67
2023/04/06 02:10:18;;;;;;;0.10;0.10;;;;;;;3.72;75.34;100423.91;5067946;28;20461;-67
2023/04/06 02:12:46;;;;;;;0.80;0.13;;;;;;;3.70;75.47;100420.59;5087292;28;20352;-67
2023/04/06 02:15:18;;;;;;;0.10;0.10;;;;;;;3.60;75.45;100412.13;5085674;28;20434;-67
2023/04/06 02:17:44;;;;;;;0.25;0.20;;;;;;;3.71;75.40;100421.44;5101446;28;20215;-67
2023/04/06 02:20:14;;;;;;;0.10;0.10;;;;;;;3.71;75.45;100424.13;5085485;28;20055;-67
2023/04/06 02:22:40;;;;;;;0.10;0.10;;;;;;;3.64;75.27;100421.47;5105939;28;20060;-67
2023/04/06 02:25:07;;;;;;;0.10;0.10;;;;;;;3.63;75.61;100427.91;5097030;28;20510;-68
2023/04/06 02:27:33;;;;;;;0.10;0.10;;;;;;;3.68;75.31;100430.81;5103303;28;20548;-68
2023/04/06 02:30:01;;;;;;;0.10;0.10;;;;;;;3.72;75.26;100428.50;5088038;28;20046;-67
2023/04/06 02:32:29;;;;;;;0.20;0.10;;;;;;;3.66;75.08;100430.19;5089341;28;20126;-67
2023/04/06 02:34:56;;;;;;;0.20;0.20;;;;;;;3.62;75.19;100426.25;5088523;28;20138;-67
2023/04/06 02:37:23;;;;;;;0.10;0.10;;;;;;;3.62;75.29;100434.38;5088449;28;20075;-67
2023/04/06 02:39:50;;;;;;;0.10;0.10;;;;;;;3.59;75.27;100430.22;5087064;28;20048;-67
2023/04/06 02:42:16;;;;;;;0.10;0.10;;;;;;;3.64;75.06;100440.41;5088331;28;20051;-67
2023/04/06 02:44:44;;;;;;;0.10;0.10;;;;;;;3.61;75.36;100443.53;5096208;28;20055;-67
2023/04/06 02:47:13;;;;;;;0.10;0.10;;;;;;;3.56;75.30;100444.16;5106445;28;20123;-67
2023/04/06 02:49:41;;;;;;;0.10;0.10;;;;;;;3.57;75.33;100447.69;5074302;28;20072;-67
2023/04/06 02:52:07;;;;;;;0.10;0.10;;;;;;;3.55;75.47;100446.03;5069395;28;20717;-67
2023/04/06 02:54:35;;;;;;;0.10;0.10;;;;;;;3.53;75.52;100448.09;5067716;28;20458;-67
2023/04/06 02:57:03;;;;;;;0.10;0.10;;;;;;;3.55;75.54;100445.22;5068980;28;20393;-68
2023/04/06 02:59:36;;;;;;;0.10;0.10;;;;;;;3.55;75.45;100450.63;5055653;28;20036;-68
2023/04/06 03:02:13;;;;;;;0.20;0.20;;;;;;;3.60;75.06;100444.56;5087662;28;20537;-67
2023/04/06 03:04:40;;;;;;;;;;;;;;;3.62;75.01;100456.81;5088270;28;20105;-67
2023/04/06 03:07:15;;;;;;;0.10;0.10;;;;;;;3.63;74.75;100455.78;5087296;28;19923;-67
2023/04/06 03:09:42;;;;;;;0.10;0.10;;;;;;;3.60;74.68;100450.81;5105458;28;20039;-67
2023/04/06 03:12:08;;;;;;;0.10;0.10;;;;;;;3.60;74.63;100453.50;5075936;28;20093;-67
2023/04/06 03:14:44;;;;;;;0.10;0.10;;;;;;;3.61;74.84;100454.34;5096911;28;20085;-67
2023/04/06 03:17:10;;;;;;;0.10;0.10;;;;;;;3.61;74.68;100457.06;5079903;28;20079;-67
2023/04/06 03:19:39;;;;;;;0.10;0.10;;;;;;;3.64;74.38;100459.31;5096715;28;20116;-68
2023/04/06 03:22:05;;;;;;;0.10;0.10;;;;;;;3.64;74.56;100464.72;5085816;28;20044;-67
2023/04/06 03:24:31;;;;;;;0.10;0.10;;;;;;;3.66;74.50;100459.94;5104343;28;20067;-67
2023/04/06 03:26:58;;;;;;;0.10;0.10;;;;;;;3.69;74.31;100460.34;5084541;28;20058;-67
2023/04/06 03:29:24;;;;;;;0.20;0.20;;;;;;;3.75;74.14;100464.09;5084872;28;20039;-67
2023/04/06 03:31:50;;;;;;;0.20;0.20;;;;;;;3.76;73.93;100473.84;5086611;28;20044;-67
2023/04/06 03:34:38;;;;;;;0.10;0.10;;;;;;;3.77;73.98;100477.38;5101960;28;20314;-67
2023/04/06 03:37:04;;;;;;;0.20;0.20;;;;;;;3.79;73.82;100476.13;5086866;28;20052;-68
2023/04/06 03:39:31;;;;;;;0.10;0.10;;;;;;;3.83;73.79;100479.25;5085557;28;20047;-67
2023/04/06 03:41:58;;;;;;;0.10;0.10;;;;;;;3.87;73.49;100475.06;5087371;28;20075;-68
2023/04/06 03:44:35;;;;;;;0.10;0.10;;;;;;;3.92;73.25;100485.25;5086319;28;20127;-68
2023/04/06 03:47:02;;;;;;;0.10;0.10;;;;;;;3.90;73.25;100485.44;5107894;28;20371;-67
2023/04/06 03:49:28;;;;;;;0.10;0.10;;;;;;;4.02;72.93;100484.78;5100535;28;20055;-67
2023/04/06 03:51:57;;;;;;;0.22;0.10;;;;;;;4.08;72.79;100479.34;5102338;28;20048;-67
2023/04/06 03:54:23;;;;;;;0.40;0.17;;;;;;;4.13;72.53;100483.28;5086989;28;20063;-67
2023/04/06 03:56:50;;;;;;;0.45;0.20;;;;;;;4.19;72.15;100494.09;5085576;28;20050;-67
2023/04/06 03:59:16;;;;;;;0.10;0.10;;;;;;;4.23;71.80;100494.50;5053846;28;20075;-67
2023/04/06 04:01:42;;;;;;;0.10;0.10;;;;;;;4.22;71.70;100493.66;5086108;28;20453;-67
2023/04/06 04:04:08;;;;;;;0.20;0.20;;;;;;;4.27;71.65;100503.84;5088219;28;20425;-67
2023/04/06 04:06:36;;;;;;;0.35;0.10;;;;;;;4.40;71.26;100501.06;5076160;28;20400;-67
2023/04/06 04:09:04;;;;;;;;;;;;;;;4.47;70.67;100503.75;5084549;28;20044;-67
2023/04/06 04:11:30;;;;;;;0.10;0.10;;;;;;;4.53;70.52;100493.91;5105654;28;19934;-67
2023/04/06 04:13:59;;;;;;;0.10;0.10;;;;;;;4.60;69.99;100508.22;5086493;28;20108;-67
2023/04/06 04:16:25;;;;;;;0.10;0.10;;;;;;;4.60;69.99;100504.69;5054254;28;20044;-67
2023/04/06 04:18:51;;;;;;;0.57;0.25;;;;;;;4.63;69.93;100504.28;5090845;28;20040;-68
2023/04/06 04:21:17;;;;;;;0.10;0.10;;;;;;;4.67;69.63;100500.88;5088156;28;20071;-67
2023/04/06 04:23:43;;;;;;;0.10;0.10;;;;;;;4.71;69.58;100505.88;5107599;28;20043;-67
2023/04/06 04:26:11;;;;;;;0.20;0.20;;;;;;;4.75;69.40;100505.22;5072864;28;20473;-67
2023/04/06 04:28:37;;;;;;;;;;;;;;;4.80;69.10;100510.81;5069914;28;20059;-67
2023/04/06 04:31:04;;;;;;;0.10;0.10;;;;;;;4.82;68.83;100505.16;5102771;28;19938;-67
2023/04/06 04:33:33;;;;;;;0.10;0.10;;;;;;;4.88;68.56;100503.47;5084619;28;20092;-68
2023/04/06 04:36:03;;;;;;;0.20;0.20;;;;;;;4.92;68.36;100508.22;5070174;28;20096;-68
2023/04/06 04:38:36;;;;;;;0.20;0.20;;;;;;;5.01;68.03;100513.41;5084828;28;20063;-67
2023/04/06 04:41:02;;;;;;;0.20;0.20;;;;;;;5.07;67.83;100505.22;5103094;28;20039;-67
2023/04/06 04:43:31;;;;;;;0.20;0.20;;;;;;;5.11;67.55;100506.44;5085352;28;20106;-67
2023/04/06 04:45:59;;;;;;;0.30;0.30;;;;;;;5.14;67.08;100510.56;5089218;28;20051;-67
2023/04/06 04:48:35;;;;;;;0.20;0.20;;;;;;;5.16;66.89;100516.63;5086277;28;20518;-67
2023/04/06 04:51:05;;;;;;;0.20;0.20;;;;;;;5.16;66.66;100513.91;5069183;28;20134;-67
2023/04/06 04:53:42;;;;;;;0.20;0.20;;;;;;;5.23;66.76;100506.53;5064936;28;20048;-67
2023/04/06 04:56:17;;;;;;;0.13;0.13;;;;;;;5.31;66.56;100513.56;5083049;28;20052;-67
2023/04/06 04:58:46;;;;;;;0.20;0.20;;;;;;;5.42;66.08;100513.88;5065854;28;20044;-68
2023/04/06 05:01:12;;;;;;;;;;;;;;;5.49;65.94;100512.78;5068490;28;20044;-67
2023/04/06 05:03:41;;;;;;;0.20;0.20;;;;;;;5.57;65.64;100522.50;5084288;28;19959;-67
2023/04/06 05:06:12;;;;;;;0.20;0.20;;;;;;;5.65;65.38;100511.34;5084067;28;20044;-67
2023/04/06 05:08:40;;;;;;;;;;;;;;;5.72;64.96;100511.28;5084995;28;20052;-67
2023/04/06 05:11:07;;;;;;;;;;;;;;;5.76;64.72;100515.19;5067891;28;20491;-67
2023/04/06 05:13:37;;;;;;;0.20;0.20;;;;;;;5.77;64.34;100510.59;5085869;28;20420;-68
2023/04/06 05:16:11;;;;;;;0.20;0.20;;;;;;;5.79;64.32;100513.91;5076421;28;20054;-67
2023/04/06 05:18:37;;;;;;;0.40;0.20;;;;;;;5.84;64.26;100511.34;5106403;27;20051;-67
2023/04/06 05:21:05;;;;;;;0.22;0.22;;;;;;;5.88;63.99;100511.72;5120601;27;20100;-67
2023/04/06 05:23:42;;;;;;;0.20;0.20;;;;;;;5.99;63.77;100510.97;5089822;27;20572;-67
2023/04/06 05:26:08;;;;;;;0.20;0.20;;;;;;;6.09;63.48;100514.03;5105232;27;20054;-67
2023/04/06 05:28:35;;;;;;;0.20;0.20;;;;;;;6.11;63.16;100508.38;5086053;28;20051;-67
2023/04/06 05:31:02;;;;;;;;;;;;;;;6.13;63.28;100510.88;5071173;28;20043;-68
2023/04/06 05:33:36;;;;;;;0.20;0.20;;;;;;;6.15;62.93;100509.56;5087640;28;19957;-67
2023/04/06 05:36:08;;;;;;;0.20;0.20;;;;;;;6.14;62.76;100501.66;5083394;28;20464;-67
2023/04/06 05:38:39;;;;;;;0.32;0.28;;;;;;;6.29;62.67;100517.53;5104355;28;20035;-67
2023/04/06 05:41:15;;;;;;;0.20;0.20;;;;;;;6.40;62.30;100511.34;5072001;28;20043;-67
2023/04/06 05:43:42;;;;;;;0.32;0.20;;;;;;;6.50;61.87;100516.22;5071912;28;20048;-67
2023/04/06 05:46:08;;;;;;;0.30;0.30;;;;;;;6.62;61.75;100514.38;5086790;28;20044;-67
2023/04/06 05:48:35;;;;;;;0.55;0.40;;;;;;;6.79;61.10;100511.00;5079469;28;20046;-68
2023/04/06 05:51:06;;;;;;;0.32;0.30;;;;;;;6.97;60.70;100517.44;5082304;28;20043;-67
2023/04/06 05:53:39;;;;;;;0.30;0.30;;;;;;;7.16;59.73;100513.56;5085127;28;20134;-67
2023/04/06 05:56:06;;;;;;;0.30;0.30;;;;;;;7.38;59.39;100518.44;5072132;28;20040;-67
2023/04/06 05:58:32;;;;;;;0.30;0.27;;;;;;;7.42;58.68;100513.38;5088634;28;20047;-67
2023/04/06 06:01:00;;;;;;;0.20;0.20;;;;;;;7.51;58.66;100510.03;5104672;28;20421;-67
2023/04/06 06:03:33;;;;;;;0.30;0.30;;;;;;;7.69;58.15;100515.59;5068938;28;20047;-67
2023/04/06 06:06:05;;;;;;;0.30;0.30;;;;;;;7.82;57.66;100515.34;5097678;28;20146;-67
2023/04/06 06:08:44;;;;;;;0.30;0.30;;;;;;;7.89;57.13;100521.50;5062042;28;20510;-67
2023/04/06 06:11:14;;;;;;;0.20;0.20;;;;;;;7.94;57.01;100518.88;5083003;28;20031;-67
2023/04/06 06:13:41;;;;;;;0.20;0.20;;;;;;;8.04;56.55;100512.81;5121967;27;20043;-67
2023/04/06 06:16:08;;;;;;;0.40;0.40;;;;;;;8.14;56.37;100511.38;5102534;27;20622;-67
2023/04/06 06:18:42;;;;;;;0.30;0.30;;;;;;;8.30;56.19;100504.31;5082529;28;20055;-67
2023/04/06 06:21:32;;;;;;;0.20;0.20;;;;;;;8.47;55.77;100515.28;5080717;28;20355;-68
2023/04/06 06:24:25;;;;;;;0.30;0.30;;;;;;;8.72;54.94;100511.41;5097590;28;20063;-67
2023/04/06 06:26:53;;;;;;;0.47;0.30;;;;;;;8.84;54.56;100498.53;5088329;28;20126;-67
2023/04/06 06:29:23;;;;;;;0.28;0.28;;;;;;;8.98;54.38;100503.69;5095923;27;20092;-67
2023/04/06 06:31:50;;;;;;;0.30;0.28;;;;;;;9.10;53.92;100498.13;5096150;28;20559;-67
2023/04/06 06:34:17;;;;;;;0.30;0.30;;;;;;;9.08;53.75;100503.84;5108580;28;20165;-67
2023/04/06 06:36:47;;;;;;;0.25;0.25;;;;;;;9.13;53.27;100511.28;5074472;27;20043;-67
2023/04/06 06:39:16;;;;;;;0.35;0.28;;;;;;;9.20;53.11;100507.31;5105070;27;20615;-67
2023/04/06 06:41:43;;;;;;;0.20;0.20;;;;;;;9.29;52.73;100510.47;5094606;28;20062;-67
2023/04/06 06:44:09;;;;;;;0.30;0.30;;;;;;;9.39;52.48;100511.69;5116453;27;20513;-67
2023/04/06 06:46:36;;;;;;;0.45;0.35;;;;;;;9.43;52.12;100504.66;5104296;28;20062;-66
2023/04/06 06:49:02;;;;;;;0.30;0.30;;;;;;;9.42;52.14;100503.84;5077157;28;20050;-67
2023/04/06 06:51:29;;;;;;;0.30;0.30;;;;;;;9.59;51.86;100505.72;5096734;28;20039;-67
2023/04/06 06:53:56;;;;;;;0.30;0.30;;;;;;;9.69;51.58;100510.50;5080335;28;20067;-67
2023/04/06 06:56:23;;;;;;;0.43;0.30;;;;;;;9.86;51.21;100503.06;4379346;28;10000526;-67
2023/04/06 06:58:51;;;;;;;0.30;0.30;;;;;;;9.91;50.75;100500.44;5083092;28;20410;-67
2023/04/06 07:01:17;;;;;;;0.97;0.30;;;;;;;10.01;50.70;100502.47;5105519;27;20624;-67
2023/04/06 07:03:44;;;;;;;0.22;0.22;;;;;;;10.10;50.17;100497.38;5100420;27;20177;-67
2023/04/06 07:06:10;;;;;;;0.40;0.30;;;;;;;10.16;50.10;100495.53;5102862;28;20050;-67
2023/04/06 07:08:39;;;;;;;0.85;0.35;;;;;;;10.26;49.88;100494.84;5093105;28;20071;-67
2023/04/06 07:11:07;;;;;;;0.20;0.20;;;;;;;10.43;49.38;100495.59;5085515;28;20040;-67
2023/04/06 07:13:33;;;;;;;0.20;0.20;;;;;;;10.67;48.71;100495.28;5104331;28;20047;-68
2023/04/06 07:16:00;;;;;;;;;;;;;;;10.75;48.45;100496.72;5070728;28;20071;-67
2023/04/06 07:18:27;;;;;;;0.20;0.20;;;;;;;10.83;48.09;100496.28;5067118;28;20463;-67
2023/04/06 07:20:54;;;;;;;0.20;0.20;;;;;;;11.02;47.80;100496.72;5080386;28;20138;-67
2023/04/06 07:23:21;;;;;;;0.30;0.30;;;;;;;11.24;47.54;100495.78;5067994;28;20075;-67
2023/04/06 07:25:47;;;;;;;0.30;0.30;;;;;;;11.37;46.81;100491.75;5102904;27;20295;-67
2023/04/06 07:28:15;;;;;;;0.55;0.30;;;;;;;11.34;46.80;100500.50;5089767;28;20181;-67
2023/04/06 07:30:42;;;;;;;0.30;0.30;;;;;;;11.40;46.54;100502.22;5089703;28;20096;-67
2023/04/06 07:33:10;;;;;;;1.13;0.30;;;;;;;11.48;46.61;100503.63;5066861;28;20431;-68
2023/04/06 07:35:37;;;;;;;0.20;0.20;;;;;;;11.73;46.18;100502.13;5075627;28;20109;-67
2023/04/06 07:38:05;;;;;;;0.22;0.22;;;;;;;12.15;45.68;100498.50;5101665;28;20134;-67
2023/04/06 07:40:33;;;;;;;0.35;0.20;;;;;;;12.45;44.71;100493.38;5102131;28;20051;-68
2023/04/06 07:42:59;;;;;;;0.40;0.30;;;;;;;12.56;44.36;100497.81;5099509;28;20043;-68
2023/04/06 07:45:27;;;;;;;0.30;0.30;;;;;;;12.85;43.69;100497.31;5100685;27;20051;-67
2023/04/06 07:47:54;;;;;;;0.20;0.20;;;;;;;13.00;43.22;100499.22;5104012;28;20418;-68
2023/04/06 07:50:21;;;;;;;0.30;0.30;;;;;;;13.12;42.41;100492.66;5095501;28;20035;-68
2023/04/06 07:52:47;;;;;;;0.55;0.30;;;;;;;13.44;41.96;100492.38;5077983;28;20051;-68
2023/04/06 07:55:14;;;;;;;0.30;0.30;;;;;;;13.83;41.01;100493.66;5075006;28;20043;-68
2023/04/06 07:57:40;;;;;;;0.20;0.20;;;;;;;13.89;40.62;100491.69;5100133;27;20048;-68
2023/04/06 08:00:09;;;;;;;0.28;0.28;;;;;;;14.07;40.55;100501.25;5099743;28;20533;-68
2023/04/06 08:02:40;;;;;;;0.75;0.30;;;;;;;14.30;39.71;100494.28;5099089;28;20055;-67
2023/04/06 08:05:07;;;;;;;;;;;;;;;14.60;39.22;100491.66;5096435;28;20054;-67
2023/04/06 08:07:33;;;;;;;0.65;0.30;;;;;;;14.68;38.85;100490.22;5083322;28;19923;-67
2023/04/06 08:09:59;;;;;;;0.30;0.30;;;;;;;15.03;38.42;100496.59;5099405;28;20506;-67
2023/04/06 08:12:25;;;;;;;0.30;0.30;;;;;;;15.32;37.85;100484.78;5094982;28;20048;-67
2023/04/06 08:14:51;;;;;;;0.30;0.30;;;;;;;15.42;37.35;100492.94;5094080;28;20043;-68
2023/04/06 08:17:19;;;;;;;0.30;0.30;;;;;;;15.57;37.22;100491.13;5077270;28;20510;-67
2023/04/06 08:19:46;;;;;;;0.30;0.30;;;;;;;15.80;36.61;100485.94;5097698;27;20075;-68
2023/04/06 08:22:12;;;;;;;;;;;;;;;16.16;36.22;100494.63;5094090;28;20123;-68
2023/04/06 08:24:38;;;;;;;0.30;0.30;;;;;;;16.58;35.58;100494.03;5102185;28;20021;-68
2023/04/06 08:27:04;;;;;;;0.52;0.40;;;;;;;16.85;34.98;100482.31;5104807;28;20089;-67
2023/04/06 08:29:31;;;;;;;0.30;0.30;;;;;;;17.10;34.55;100490.53;5109310;27;20137;-67
2023/04/06 08:31:57;;;;;;;0.40;0.40;;;;;;;17.51;33.88;100484.25;5095150;27;20040;-69
2023/04/06 08:34:23;;;;;;;0.40;0.40;;;;;;;17.85;33.09;100485.00;5089539;27;20553;-68
2023/04/06 08:36:52;;;;;;;0.30;0.30;;;;;;;18.08;32.09;100485.94;5104873;27;20063;-68
2023/04/06 08:39:24;;;;;;;0.40;0.40;;;;;;;18.02;32.20;100483.56;5102147;28;20886;-68
2023/04/06 08:41:52;;;;;;;0.40;0.40;;;;;;;18.02;31.68;100481.63;5091203;28;20044;-68
2023/04/06 08:44:18;;;;;;;;;;;;;;;18.32;31.66;100482.09;5107851;27;20525;-68
2023/04/06 08:46:44;;;;;;;0.65;0.55;;;;;;;18.47;31.35;100480.97;5104045;28;19923;-68
2023/04/06 08:49:12;;;;;;;0.40;0.40;;;;;;;18.31;31.40;100483.25;5100596;28;20044;-68
2023/04/06 08:51:38;;;;;;;;;;;;;;;18.45;31.35;100480.44;5104873;28;20042;-68
2023/04/06 08:54:06;;;;;;;0.43;0.43;;;;;;;18.70;30.75;100480.97;5102222;28;20754;-68
2023/04/06 08:56:32;;;;;;;0.50;0.50;;;;;;;18.95;30.32;100476.75;5104146;28;20502;-68
2023/04/06 08:58:58;;;;;;;0.75;0.70;;;;;;;19.29;29.80;100463.47;5103466;28;20128;-68
2023/04/06 09:01:27;;;;;;;0.60;0.60;;;;;;;19.36;30.05;100472.19;5105413;28;20510;-68
2023/04/06 09:03:56;;;;;;;0.68;0.68;;;;;;;19.56;29.31;100472.75;5102903;28;20390;-68
2023/04/06 09:06:22;;;;;;;0.50;0.50;;;;;;;19.55;28.81;100471.91;5093155;28;20426;-68
2023/04/06 09:08:49;;;;;;;0.57;0.57;;;;;;;19.95;28.39;100471.09;5102399;28;20046;-68
2023/04/06 09:11:16;;;;;;;0.60;0.60;;;;;;;20.06;28.05;100468.03;5101718;28;20043;-68
2023/04/06 09:13:47;;;;;;;0.60;0.60;;;;;;;20.03;28.29;100468.69;5101776;28;20039;-68
2023/04/06 09:16:14;;;;;;;0.70;0.70;;;;;;;20.05;28.04;100467.22;4378351;28;10000507;-68
2023/04/06 09:18:40;;;;;;;0.60;0.60;;;;;;;20.14;28.26;100472.81;5100370;28;20521;-68
2023/04/06 09:21:07;;;;;;;0.68;0.68;;;;;;;20.37;27.79;100461.56;5096302;28;20047;-68
2023/04/06 09:23:34;;;;;;;0.70;0.70;;;;;;;20.47;27.76;100474.31;5097202;28;20221;-68
2023/04/06 09:26:08;;;;;;;0.77;0.77;;;;;;;21.07;27.09;100480.19;5104294;28;20044;-68
2023/04/06 09:28:46;;;;;;;0.70;0.70;;;;;;;21.33;26.83;100470.97;5105568;28;20047;-69
2023/04/06 09:31:13;;;;;;;1.10;0.80;;;;;;;21.50;25.94;100458.97;5098760;28;20048;-68
2023/04/06 09:33:41;;;;;;;0.63;0.63;;;;;;;21.68;26.33;100473.66;5089207;28;20054;-68
2023/04/06 09:36:11;;;;;;;0.73;0.73;;;;;;;22.05;25.16;100460.03;5079728;28;20620;-68
2023/04/06 09:38:38;;;;;;;0.80;0.80;;;;;;;22.18;24.65;100465.69;5111253;28;20494;-68
2023/04/06 09:41:04;;;;;;;1.13;0.82;;;;;;;22.17;24.72;100459.31;5103200;28;20043;-68
2023/04/06 09:43:31;;;;;;;1.08;0.80;;;;;;;22.44;24.90;100462.72;5101272;28;20047;-68
2023/04/06 09:46:00;;;;;;;0.90;0.90;;;;;;;22.59;24.29;100466.06;5115472;28;20542;-68
2023/04/06 09:48:30;;;;;;;0.90;0.90;;;;;;;22.72;23.87;100458.59;5087160;28;20603;-68
2023/04/06 09:51:01;;;;;;;0.95;0.95;;;;;;;22.82;23.96;100469.31;5106891;28;20046;-66
2023/04/06 09:53:31;;;;;;;0.95;0.95;;;;;;;22.91;23.56;100463.66;5095093;28;20036;-68
2023/04/06 09:56:02;;;;;;;0.90;0.90;;;;;;;22.92;23.87;100460.53;5097573;28;20490;-68
2023/04/06 09:58:33;;;;;;;1.00;1.00;;;;;;;22.92;23.33;100459.69;5104581;28;20051;-68
2023/04/06 10:01:10;;;;;;;1.00;1.00;;;;;;;22.75;23.74;100452.34;5103993;28;20048;-68
2023/04/06 10:03:45;;;;;;;1.00;1.00;;;;;;;22.95;23.34;100457.06;5102697;28;20043;-68
2023/04/06 10:06:13;;;;;;;1.10;1.10;;;;;;;23.29;23.33;100454.28;5101280;28;20628;-68
2023/04/06 10:08:42;;;;;;;1.00;1.00;;;;;;;23.64;22.92;100453.84;5108316;28;20119;-68
2023/04/06 10:11:09;;;;;;;1.20;1.10;;;;;;;23.63;22.57;100446.63;5091421;28;20054;-68
2023/04/06 10:13:35;;;;;;;1.00;1.00;;;;;;;23.79;22.24;100445.94;5099465;28;20409;-69
2023/04/06 10:16:05;;;;;;;1.00;1.00;;;;;;;23.89;22.43;100444.66;5105087;28;20078;-67
2023/04/06 10:18:32;;;;;;;1.00;1.00;;;;;;;24.14;22.17;100451.03;5101861;28;20059;-68
2023/04/06 10:21:04;;;;;;;1.10;1.10;;;;;;;24.27;21.95;100451.81;5050288;28;20594;-69
2023/04/06 10:23:35;;;;;;;1.20;1.10;;;;;;;23.93;22.12;100453.94;5061103;28;20519;-68
2023/04/06 10:26:02;;;;;;;1.00;1.00;;;;;;;24.07;21.91;100448.03;5062896;28;20052;-68
2023/04/06 10:28:32;;;;;;;1.10;1.10;;;;;;;24.41;21.67;100440.28;5062582;28;20415;-68
2023/04/06 10:30:59;;;;;;;1.20;1.10;;;;;;;24.70;21.29;100443.91;5061175;28;20071;-69
2023/04/06 10:33:27;;;;;;;1.10;1.10;;;;;;;24.62;21.14;100442.06;5061225;28;20531;-69
2023/04/06 10:35:55;;;;;;;1.10;1.10;;;;;;;25.03;21.22;100453.19;5061094;28;20443;-69
2023/04/06 10:38:32;;;;;;;1.20;1.10;;;;;;;25.40;20.38;100452.16;5059483;28;20128;-69
2023/04/06 10:41:04;;;;;;;1.10;1.10;;;;;;;25.33;20.27;100436.00;5055576;28;20109;-68
2023/04/06 10:43:35;;;;;;;1.10;1.10;;;;;;;25.30;20.40;100454.34;5066497;28;20062;-69
2023/04/06 10:46:01;;;;;;;1.13;1.13;;;;;;;25.34;20.39;100444.03;5064327;28;20628;-68
2023/04/06 10:48:39;;;;;;;1.17;1.17;;;;;;;25.30;19.91;100440.34;5040837;28;20043;-68
2023/04/06 10:51:11;;;;;;;1.20;1.10;;;;;;;25.46;19.65;100440.34;5066489;28;20049;-69
2023/04/06 10:53:37;;;;;;;1.10;1.10;;;;;;;25.53;19.83;100428.53;5068377;28;20037;-68
2023/04/06 10:56:10;;;;;;;1.10;1.10;;;;;;;26.17;19.42;100434.03;5066146;28;20072;-68
2023/04/06 10:58:36;;;;;;;1.30;1.20;;;;;;;26.28;19.12;100436.28;5066796;28;20427;-69
2023/04/06 11:01:02;;;;;;;1.23;1.15;;;;;;;26.36;18.85;100438.03;5041664;28;20461;-68
2023/04/06 11:03:29;;;;;;;1.20;1.20;;;;;;;26.39;18.43;100442.09;5053300;28;20181;-68
2023/04/06 11:05:57;;;;;;;1.20;1.20;;;;;;;26.47;19.07;100444.69;5065841;28;20092;-68
2023/04/06 11:08:25;;;;;;;1.30;1.20;;;;;;;26.94;18.51;100442.03;4718303;28;10000368;-68
2023/04/06 11:10:51;;;;;;;1.40;1.30;;;;;;;26.89;18.32;100445.16;4732920;28;10000498;-69
2023/04/06 11:13:17;;;;;;;1.30;1.20;;;;;;;27.26;18.59;100430.59;5070031;28;20732;-68
2023/04/06 11:15:54;;;;;;;1.20;1.20;;;;;;;27.13;17.85;100446.81;5054599;28;10001342;-68
2023/04/06 11:18:20;;;;;;;1.30;1.20;;;;;;;26.71;18.46;100437.19;5062634;28;20261;-68
2023/04/06 11:20:48;;;;;;;1.30;1.20;;;;;;;26.45;18.41;100433.03;5092600;28;20059;-68
2023/04/06 11:23:25;;;;;;;1.33;1.23;;;;;;;26.44;18.62;100437.03;5104977;27;20049;-68
2023/04/06 11:25:52;;;;;;;1.40;1.30;;;;;;;26.44;18.95;100437.03;5099771;28;20155;-67
2023/04/06 11:28:18;;;;;;;;;;;;;;;26.66;18.53;100434.66;5098484;27;20236;-67
2023/04/06 11:30:45;;;;;;;1.33;1.23;;;;;;;26.81;18.31;100418.94;4740677;28;10000036;-67
2023/04/06 11:33:11;;;;;;;1.38;1.27;;;;;;;26.45;18.22;100424.63;5101178;28;20086;-67
2023/04/06 11:35:37;;;;;;;1.40;1.30;;;;;;;26.56;18.38;100426.84;5103523;28;20050;-67
2023/04/06 11:38:04;;;;;;;1.30;1.20;;;;;;;27.06;17.77;100426.22;5101965;28;20473;-67
2023/04/06 11:40:33;;;;;;;1.42;1.30;;;;;;;26.84;18.12;100434.19;5100280;28;20035;-67
2023/04/06 11:42:59;;;;;;;1.40;1.30;;;;;;;27.31;17.93;100432.28;5099232;28;20138;-67